CMA CGM Homere — MQBL6 — position and weather

sailwx.info

Track history (hours):
 
Tides and Currents Weather Stations Pressure Air Temp Water Temp Dewpoint Dewpoint Depression Visibility Wind Speed Wind Dir Waves Ship Positions

CMA CGM Homere

Last reported at 2015-Mar-31 15:28 UTC. Time now 2015-Apr-01 01:08 UTC.
Position N 38°58' W 009°51'.

Length 170 m; draft 7.5 m.

Type: Ship (hazmat cat A). MMSI: 235052314.

Date/timePositionNaut miles runAvg speedWind from/ knotsBaromVisibWave heightAir tempDewpointWater temp
2015-Mar-31 15:28N 38°58' W 009°51'1314.1
2015-Mar-31 14:34N 38°45' W 009°51'1413.9
2015-Mar-31 13:33N 38°32' W 009°48'1514.7
2015-Mar-31 12:34N 38°17' W 009°44'1515.0
2015-Mar-31 11:33N 38°03' W 009°40'1515.3
2015-Mar-31 10:33N 37°48' W 009°35'1515.4
2015-Mar-31 09:33N 37°33' W 009°31'1515.2
2015-Mar-31 08:33N 37°18' W 009°27'1515.1
2015-Mar-31 07:33N 37°03' W 009°22'1615.3
2015-Mar-31 06:30N 36°49' W 009°14'1616.0
2015-Mar-31 05:31N 36°41' W 008°57'1616.6
2015-Mar-31 04:33N 36°37' W 008°37'1616.4
2015-Mar-31 03:33N 36°30' W 008°19'1716.9
2015-Mar-31 02:34N 36°25' W 007°59'2017.0
2015-Mar-31 01:22N 36°19' W 007°35'1316.6
2015-Mar-31 00:33N 36°14' W 007°19'8516.5
2015-Mar-30 19:23N 35°57' W 005°36'1214.5
2015-Mar-30 18:33N 36°03' W 005°22'6 5.7
2015-Mar-30 17:33N 36°08' W 005°25'0 0.0
2015-Mar-30 16:33N 36°08' W 005°25'0 0.0
2015-Mar-30 15:30N 36°08' W 005°25'0 0.0
2015-Mar-30 14:33N 36°08' W 005°25'0 0.0
2015-Mar-30 13:33N 36°08' W 005°25'0 0.0
2015-Mar-30 12:33N 36°08' W 005°25'4 3.5
2015-Mar-30 11:33N 36°05' W 005°22'1211.7
2015-Mar-30 10:33N 35°57' W 005°32'16618.5
2015-Mar-30 01:33N 34°04' W 008°01'4218.4
2015-Mar-29 23:17N 33°33' W 008°34'1318.0
2015-Mar-29 22:33N 33°23' W 008°45'1717.7
2015-Mar-29 21:34N 33°10' W 008°59'1817.5
2015-Mar-29 20:33N 32°57' W 009°13'1717.4
2015-Mar-29 19:33N 32°44' W 009°27'1817.5
2015-Mar-29 18:31N 32°31' W 009°41'1717.2
2015-Mar-29 17:33N 32°18' W 009°55'1717.2
2015-Mar-29 16:33N 32°05' W 010°08'1817.2
2015-Mar-29 15:31N 31°53' W 010°23'3616.9
2015-Mar-29 13:24N 31°26' W 010°51'21017.6
2015-Mar-29 01:28N 28°38' W 013°16'1718.2
2015-Mar-29 00:32N 28°24' W 013°27'1818.3
2015-Mar-28 23:33N 28°09' W 013°38'1818.1
2015-Mar-28 22:33N 27°54' W 013°49'1818.1
2015-Mar-28 21:33N 27°39' W 014°01'2118.0
2015-Mar-28 20:23N 27°22' W 014°16'1518.2
2015-Mar-28 19:33N 27°10' W 014°26'1918.2
2015-Mar-28 18:32N 26°56' W 014°39'  
Track history (hours):
 
Tides and Currents Weather Stations Pressure Air Temp Water Temp Dewpoint Dewpoint Depression Visibility Wind Speed Wind Dir Waves Ship Positions

CMA CGM Homere

Last reported at 2015-Mar-31 15:28 UTC. Time now 2015-Apr-01 01:08 UTC.
Position N 38°58' W 009°51'.

Length 170 m; draft 7.5 m.

Type: Ship (hazmat cat A). MMSI: 235052314.

Date/timePositionNaut miles runAvg speedWind from/ knotsBaromVisibWave heightAir tempDewpointWater temp
2015-Mar-31 15:28N 38°58' W 009°51'1314.1
2015-Mar-31 14:34N 38°45' W 009°51'1413.9
2015-Mar-31 13:33N 38°32' W 009°48'1514.7
2015-Mar-31 12:34N 38°17' W 009°44'1515.0
2015-Mar-31 11:33N 38°03' W 009°40'1515.3
2015-Mar-31 10:33N 37°48' W 009°35'1515.4
2015-Mar-31 09:33N 37°33' W 009°31'1515.2
2015-Mar-31 08:33N 37°18' W 009°27'1515.1
2015-Mar-31 07:33N 37°03' W 009°22'1615.3
2015-Mar-31 06:30N 36°49' W 009°14'1616.0
2015-Mar-31 05:31N 36°41' W 008°57'1616.6
2015-Mar-31 04:33N 36°37' W 008°37'1616.4
2015-Mar-31 03:33N 36°30' W 008°19'1716.9
2015-Mar-31 02:34N 36°25' W 007°59'2017.0
2015-Mar-31 01:22N 36°19' W 007°35'1316.6
2015-Mar-31 00:33N 36°14' W 007°19'8516.5
2015-Mar-30 19:23N 35°57' W 005°36'1214.5
2015-Mar-30 18:33N 36°03' W 005°22'6 5.7
2015-Mar-30 17:33N 36°08' W 005°25'0 0.0
2015-Mar-30 16:33N 36°08' W 005°25'0 0.0
2015-Mar-30 15:30N 36°08' W 005°25'0 0.0
2015-Mar-30 14:33N 36°08' W 005°25'0 0.0
2015-Mar-30 13:33N 36°08' W 005°25'0 0.0
2015-Mar-30 12:33N 36°08' W 005°25'4 3.5
2015-Mar-30 11:33N 36°05' W 005°22'1211.7
2015-Mar-30 10:33N 35°57' W 005°32'16618.5
2015-Mar-30 01:33N 34°04' W 008°01'4218.4
2015-Mar-29 23:17N 33°33' W 008°34'1318.0
2015-Mar-29 22:33N 33°23' W 008°45'1717.7
2015-Mar-29 21:34N 33°10' W 008°59'1817.5
2015-Mar-29 20:33N 32°57' W 009°13'1717.4
2015-Mar-29 19:33N 32°44' W 009°27'1817.5
2015-Mar-29 18:31N 32°31' W 009°41'1717.2
2015-Mar-29 17:33N 32°18' W 009°55'1717.2
2015-Mar-29 16:33N 32°05' W 010°08'1817.2
2015-Mar-29 15:31N 31°53' W 010°23'3616.9
2015-Mar-29 13:24N 31°26' W 010°51'21017.6
2015-Mar-29 01:28N 28°38' W 013°16'1718.2
2015-Mar-29 00:32N 28°24' W 013°27'1818.3
2015-Mar-28 23:33N 28°09' W 013°38'1818.1
2015-Mar-28 22:33N 27°54' W 013°49'1818.1
2015-Mar-28 21:33N 27°39' W 014°01'2118.0
2015-Mar-28 20:23N 27°22' W 014°16'1518.2
2015-Mar-28 19:33N 27°10' W 014°26'1918.2
2015-Mar-28 18:32N 26°56' W 014°39'  

Dump ship's entire track history